Time;durP1;ratioP1;P1;durP2;ratioP2;P2;SDS_P1;SDS_P2;PMS_P1;PMS_P2;Temp;Humidity;BMP_temperature;BMP_pressure;BME280_temperature;BME280_humidity;BME280_pressure;Samples;Min_cycle;Max_cycle;Signal;HPM_P1;HPM_P2
2021/09/17 00:01:06;;;;;;;;;;;13.20;99.90;;;;;;8296781;28;19905;-64
2021/09/17 00:05:07;;;;;;;;;;;13.10;99.90;;;;;;8295356;28;19913;-64
2021/09/17 00:09:08;;;;;;;;;;;13.10;99.90;;;;;;8296486;28;19909;-64
2021/09/17 00:13:08;;;;;;;;;;;13.00;99.90;;;;;;8296595;28;19912;-64
2021/09/17 00:17:09;;;;;;;;;;;13.10;99.90;;;;;;8296007;28;19940;-64
2021/09/17 00:21:10;;;;;;;;;;;13.10;99.90;;;;;;8296277;28;19909;-64
2021/09/17 00:25:10;;;;;;;;;;;13.20;99.90;;;;;;8295233;28;19960;-64
2021/09/17 00:29:11;;;;;;;;;;;13.00;99.90;;;;;;8294839;28;19905;-64
2021/09/17 00:33:11;;;;;;;;;;;13.00;99.90;;;;;;8295726;28;19906;-64
2021/09/17 00:37:12;;;;;;;;;;;13.00;99.90;;;;;;8295139;28;20290;-64
2021/09/17 00:41:13;;;;;;;;;;;13.10;99.90;;;;;;8295686;28;20397;-64
2021/09/17 00:45:13;;;;;;;;;;;12.90;99.90;;;;;;8295139;28;19909;-64
2021/09/17 00:49:14;;;;;;;;;;;12.90;99.90;;;;;;8295239;28;19905;-64
2021/09/17 00:53:15;;;;;;;;;;;12.80;99.90;;;;;;8295213;28;19996;-64
2021/09/17 00:57:16;;;;;;;;;;;12.90;99.90;;;;;;8294171;28;20043;-64
2021/09/17 01:01:16;;;;;;;;;;;13.20;99.90;;;;;;8294509;28;19987;-64
2021/09/17 01:05:17;;;;;;;;;;;13.10;99.90;;;;;;8293767;28;19914;-64
2021/09/17 01:09:18;;;;;;;;;;;12.80;99.90;;;;;;8294721;28;19909;-64
2021/09/17 01:13:19;;;;;;;;;;;12.70;99.90;;;;;;8294663;28;19980;-64
2021/09/17 01:17:19;;;;;;;;;;;12.50;99.90;;;;;;8294178;28;19916;-64
2021/09/17 01:21:20;;;;;;;;;;;12.50;99.90;;;;;;8294595;28;19916;-64
2021/09/17 01:25:21;;;;;;;;;;;12.60;99.90;;;;;;8276023;28;20012;-64
2021/09/17 01:29:22;;;;;;;;;;;12.50;99.90;;;;;;8294271;28;19906;-64
2021/09/17 01:33:24;;;;;;;;;;;12.40;99.90;;;;;;8276394;28;19935;-64
2021/09/17 01:37:25;;;;;;;;;;;12.50;99.90;;;;;;8274935;28;20385;-64
2021/09/17 01:41:25;;;;;;;;;;;12.40;99.90;;;;;;8294075;28;19995;-64
2021/09/17 01:45:26;;;;;;;;;;;12.30;99.90;;;;;;8293516;28;19909;-64
2021/09/17 01:49:26;;;;;;;;;;;12.30;99.90;;;;;;8293306;28;19928;-64
2021/09/17 01:53:27;;;;;;;;;;;12.40;99.90;;;;;;8293750;28;19960;-64
2021/09/17 01:57:27;;;;;;;;;;;12.30;99.90;;;;;;8293052;28;19980;-64
2021/09/17 02:01:28;;;;;;;;;;;12.30;99.90;;;;;;8293813;28;20289;-64
2021/09/17 02:05:29;;;;;;;;;;;12.30;99.90;;;;;;8275818;28;19955;-64
2021/09/17 02:09:29;;;;;;;;;;;12.50;99.90;;;;;;8293080;28;19905;-64
2021/09/17 02:13:30;;;;;;;;;;;12.50;99.90;;;;;;8275990;28;19953;-64
2021/09/17 02:17:31;;;;;;;;;;;12.60;99.90;;;;;;8293136;28;19910;-64
2021/09/17 02:21:32;;;;;;;;;;;12.50;99.90;;;;;;8293822;28;19906;-64
2021/09/17 02:25:32;;;;;;;;;;;12.40;99.90;;;;;;8293257;28;19909;-64
2021/09/17 02:29:33;;;;;;;;;;;12.70;99.90;;;;;;8293241;28;20000;-64
2021/09/17 02:33:33;;;;;;;;;;;12.60;99.90;;;;;;8293207;28;19912;-64
2021/09/17 02:37:34;;;;;;;;;;;12.50;99.90;;;;;;8292879;28;19953;-64
2021/09/17 02:41:34;;;;;;;;;;;12.50;99.90;;;;;;8293425;28;19913;-64
2021/09/17 02:45:35;;;;;;;;;;;12.50;99.90;;;;;;8275226;28;20370;-64
2021/09/17 02:49:35;;;;;;;;;;;12.40;99.90;;;;;;8293049;28;20325;-64
2021/09/17 02:53:36;;;;;;;;;;;12.50;99.90;;;;;;8298927;28;19912;-64
2021/09/17 02:57:37;;;;;;;;;;;12.40;99.90;;;;;;8298441;28;19913;-64
2021/09/17 03:01:37;;;;;;;;;;;12.60;99.90;;;;;;8298321;28;19996;-64
2021/09/17 03:05:38;;;;;;;;;;;12.50;99.90;;;;;;8280351;28;20332;-64
2021/09/17 03:09:38;;;;;;;;;;;12.40;99.90;;;;;;8298321;28;20281;-64
2021/09/17 03:13:39;;;;;;;;;;;12.50;99.90;;;;;;8298658;28;19920;-64
2021/09/17 03:17:39;;;;;;;;;;;12.40;99.90;;;;;;8297769;28;19905;-64
2021/09/17 03:21:39;;;;;;;;;;;12.40;99.90;;;;;;8298660;28;19944;-64
2021/09/17 03:25:40;;;;;;;;;;;12.40;99.90;;;;;;8297986;28;19914;-64
2021/09/17 03:29:41;;;;;;;;;;;12.50;99.90;;;;;;8297945;28;20000;-64
2021/09/17 03:33:41;;;;;;;;;;;12.50;99.90;;;;;;8297890;28;19905;-64
2021/09/17 03:37:42;;;;;;;;;;;12.50;99.90;;;;;;8297454;28;19913;-64
2021/09/17 03:41:45;;;;;;;;;;;12.60;99.90;;;;;;8298043;28;19909;-64
2021/09/17 03:45:45;;;;;;;;;;;12.60;99.90;;;;;;8297082;28;19914;-64
2021/09/17 03:49:46;;;;;;;;;;;12.50;99.90;;;;;;8279947;28;19905;-64
2021/09/17 03:53:46;;;;;;;;;;;12.50;99.90;;;;;;8297347;28;19905;-64
2021/09/17 03:57:47;;;;;;;;;;;12.60;99.90;;;;;;8296922;28;19943;-64
2021/09/17 04:01:48;;;;;;;;;;;12.60;99.90;;;;;;8296586;28;19905;-64
2021/09/17 04:05:48;;;;;;;;;;;12.60;99.90;;;;;;8296108;28;20329;-64
2021/09/17 04:09:49;;;;;;;;;;;12.70;99.90;;;;;;8296414;28;19972;-71
2021/09/17 04:13:49;;;;;;;;;;;12.70;99.90;;;;;;8296004;28;19909;-71
2021/09/17 04:17:50;;;;;;;;;;;12.80;99.90;;;;;;8277092;28;20007;-72
2021/09/17 04:21:51;;;;;;;;;;;12.90;99.90;;;;;;8296134;28;19967;-71
2021/09/17 04:25:52;;;;;;;;;;;12.80;99.90;;;;;;8295771;28;19917;-71
2021/09/17 04:29:53;;;;;;;;;;;12.80;99.90;;;;;;8295294;28;19910;-72
2021/09/17 04:33:53;;;;;;;;;;;12.80;99.90;;;;;;8295501;28;19909;-66
2021/09/17 04:37:56;;;;;;;;;;;13.00;99.90;;;;;;8295484;28;19913;-64
2021/09/17 04:41:57;;;;;;;;;;;13.00;99.90;;;;;;8296062;28;19905;-65
2021/09/17 04:45:57;;;;;;;;;;;13.00;99.90;;;;;;8287748;28;19914;-64
2021/09/17 04:49:59;;;;;;;;;;;13.00;99.90;;;;;;8291743;28;19917;-64
2021/09/17 04:54:00;;;;;;;;;;;12.90;99.90;;;;;;8290451;28;20301;-65
2021/09/17 04:58:04;;;;;;;;;;;12.90;99.90;;;;;;8291475;28;19917;-65
2021/09/17 05:02:04;;;;;;;;;;;12.80;99.90;;;;;;8260187;28;19932;-65
2021/09/17 05:06:05;;;;;;;;;;;12.70;99.90;;;;;;8273524;28;19917;-65
2021/09/17 05:10:06;;;;;;;;;;;12.60;99.90;;;;;;8274064;28;19913;-64
2021/09/17 05:14:06;;;;;;;;;;;12.60;99.90;;;;;;8294422;28;19935;-65
2021/09/17 05:18:06;;;;;;;;;;;12.60;99.90;;;;;;8293888;28;19910;-65
2021/09/17 05:22:07;;;;;;;;;;;12.90;99.90;;;;;;8294026;28;19905;-64
2021/09/17 05:26:07;;;;;;;;;;;12.90;99.90;;;;;;8276153;28;19971;-65
2021/09/17 05:30:08;;;;;;;;;;;12.80;99.90;;;;;;8294789;28;19991;-65
2021/09/17 05:34:09;;;;;;;;;;;12.80;99.90;;;;;;8293271;28;19918;-64
2021/09/17 05:38:09;;;;;;;;;;;12.80;99.90;;;;;;8293704;28;19960;-65
2021/09/17 05:42:09;;;;;;;;;;;12.80;99.90;;;;;;8294526;28;19916;-64
2021/09/17 05:46:10;;;;;;;;;;;12.90;99.90;;;;;;8293926;28;19921;-64
2021/09/17 05:50:11;;;;;;;;;;;13.40;99.90;;;;;;8294169;28;19941;-64
2021/09/17 05:54:12;;;;;;;;;;;14.30;99.90;;;;;;8294088;28;19912;-64
2021/09/17 05:58:12;;;;;;;;;;;14.10;99.90;;;;;;8293599;28;19921;-65
2021/09/17 06:02:13;;;;;;;;;;;13.70;99.90;;;;;;8293992;28;19906;-64
2021/09/17 06:06:13;;;;;;;;;;;13.50;99.90;;;;;;8293403;28;19978;-65
2021/09/17 06:10:14;;;;;;;;;;;13.40;99.90;;;;;;8293814;28;19910;-65
2021/09/17 06:14:14;;;;;;;;;;;13.40;99.90;;;;;;8275912;28;19912;-65
2021/09/17 06:18:15;;;;;;;;;;;13.50;99.90;;;;;;8293140;28;19906;-65
2021/09/17 06:22:15;;;;;;;;;;;13.60;99.90;;;;;;8276231;28;19959;-65
2021/09/17 06:26:16;;;;;;;;;;;13.70;99.90;;;;;;8295004;28;19971;-65
2021/09/17 06:30:17;;;;;;;;;;;13.80;99.90;;;;;;8299167;28;19937;-65
2021/09/17 06:34:17;;;;;;;;;;;13.90;99.90;;;;;;8289934;28;19925;-65
2021/09/17 06:38:18;;;;;;;;;;;14.00;99.90;;;;;;8298528;28;19914;-65
2021/09/17 06:42:18;;;;;;;;;;;14.20;99.90;;;;;;8281090;28;19912;-66
2021/09/17 06:46:19;;;;;;;;;;;14.30;99.90;;;;;;8280762;28;19924;-65
2021/09/17 06:50:21;;;;;;;;;;;14.50;99.90;;;;;;8298680;28;19909;-65
2021/09/17 06:54:21;;;;;;;;;;;14.60;99.90;;;;;;8298267;28;19921;-65
2021/09/17 06:58:28;;;;;;;;;;;14.80;99.90;;;;;;8298237;28;20552;-65
2021/09/17 07:02:28;;;;;;;;;;;15.00;99.90;;;;;;8298678;28;19914;-65
2021/09/17 07:06:32;;;;;;;;;;;15.00;99.90;;;;;;8298378;28;19917;-65
2021/09/17 07:10:34;;;;;;;;;;;15.00;99.90;;;;;;8298087;28;19913;-65
2021/09/17 07:14:34;;;;;;;;;;;15.30;99.90;;;;;;8297573;28;20262;-65
2021/09/17 07:18:34;;;;;;;;;;;15.50;99.90;;;;;;8297702;28;19918;-65
2021/09/17 07:22:35;;;;;;;;;;;15.60;99.90;;;;;;8278045;28;19909;-65
2021/09/17 07:26:35;;;;;;;;;;;15.70;99.90;;;;;;8296628;28;19921;-65
2021/09/17 07:30:36;;;;;;;;;;;15.90;99.90;;;;;;8290486;28;20400;-65
2021/09/17 07:34:36;;;;;;;;;;;16.10;99.90;;;;;;8295824;28;19906;-65
2021/09/17 07:38:37;;;;;;;;;;;16.30;99.90;;;;;;8297080;28;20004;-65
2021/09/17 07:42:37;;;;;;;;;;;16.30;99.90;;;;;;8297416;28;19948;-65
2021/09/17 07:46:38;;;;;;;;;;;16.50;99.90;;;;;;8297505;28;19909;-65
2021/09/17 07:50:39;;;;;;;;;;;16.60;99.90;;;;;;8297708;28;19905;-65
2021/09/17 07:54:39;;;;;;;;;;;16.80;99.90;;;;;;8297109;28;19913;-65
2021/09/17 07:58:40;;;;;;;;;;;16.80;99.90;;;;;;8297261;28;20509;-65
2021/09/17 08:02:41;;;;;;;;;;;16.90;99.90;;;;;;8297232;28;20297;-65
2021/09/17 08:06:41;;;;;;;;;;;16.90;99.90;;;;;;8296906;28;19916;-65
2021/09/17 08:10:42;;;;;;;;;;;17.10;99.90;;;;;;8297029;28;19906;-65
2021/09/17 08:14:42;;;;;;;;;;;17.10;99.90;;;;;;8279145;28;19912;-65
2021/09/17 08:18:45;;;;;;;;;;;17.30;99.90;;;;;;8296640;28;19906;-65
2021/09/17 08:22:45;;;;;;;;;;;17.80;99.90;;;;;;8296741;28;19906;-65
2021/09/17 08:26:47;;;;;;;;;;;18.00;99.90;;;;;;8296395;28;20004;-65
2021/09/17 08:30:48;;;;;;;;;;;18.30;99.90;;;;;;8296735;28;19928;-65
2021/09/17 08:34:48;;;;;;;;;;;18.60;99.90;;;;;;8278673;28;19924;-65
2021/09/17 08:38:49;;;;;;;;;;;18.60;99.90;;;;;;8295826;28;19916;-66
2021/09/17 08:42:50;;;;;;;;;;;19.00;99.90;;;;;;8295813;28;19905;-65
2021/09/17 08:46:50;;;;;;;;;;;19.10;99.90;;;;;;8295730;28;19936;-66
2021/09/17 08:50:51;;;;;;;;;;;19.20;99.90;;;;;;8295122;28;19909;-65
2021/09/17 08:54:52;;;;;;;;;;;19.30;99.90;;;;;;8295238;28;19953;-65
2021/09/17 08:58:52;;;;;;;;;;;19.30;99.90;;;;;;8293916;28;20008;-65
2021/09/17 09:02:57;;;;;;;;;;;19.40;99.90;;;;;;8276426;28;19919;-65
2021/09/17 09:07:04;;;;;;;;;;;19.70;99.90;;;;;;8292651;28;19916;-65
2021/09/17 09:11:19;;;;;;;;;;;20.00;99.90;;;;;;8291908;28;20456;-65
2021/09/17 09:15:21;;;;;;;;;;;20.30;99.90;;;;;;8294345;28;19916;-65
2021/09/17 09:19:37;;;;;;;;;;;20.60;99.90;;;;;;8276718;28;19916;-65
2021/09/17 09:23:42;;;;;;;;;;;19.80;99.90;;;;;;8294417;28;19906;-65
2021/09/17 09:27:42;;;;;;;;;;;19.50;99.90;;;;;;8293505;28;20378;-65
2021/09/17 09:31:42;;;;;;;;;;;19.50;99.90;;;;;;8276138;28;19910;-65
2021/09/17 09:35:43;;;;;;;;;;;19.60;99.90;;;;;;8293413;28;19920;-65
2021/09/17 09:39:53;;;;;;;;;;;20.00;99.90;;;;;;8293594;28;19906;-65
2021/09/17 09:43:54;;;;;;;;;;;19.90;99.90;;;;;;8294256;28;19912;-65
2021/09/17 09:47:56;;;;;;;;;;;20.20;99.90;;;;;;8293711;28;19909;-65
2021/09/17 09:52:07;;;;;;;;;;;20.40;99.90;;;;;;8293327;28;19909;-66
2021/09/17 09:56:07;;;;;;;;;;;20.60;99.90;;;;;;8293013;28;19913;-65
2021/09/17 10:00:09;;;;;;;;;;;21.30;99.90;;;;;;8292891;28;20353;-66
2021/09/17 10:04:11;;;;;;;;;;;21.90;99.90;;;;;;8292078;28;19960;-65
2021/09/17 10:08:12;;;;;;;;;;;22.40;99.90;;;;;;8292335;28;19917;-65
2021/09/17 10:12:13;;;;;;;;;;;22.50;99.90;;;;;;8292970;28;19913;-65
2021/09/17 10:16:14;;;;;;;;;;;22.80;99.90;;;;;;8292407;28;20445;-65
2021/09/17 10:20:14;;;;;;;;;;;23.00;99.90;;;;;;8292378;28;19905;-65
2021/09/17 10:24:27;;;;;;;;;;;22.50;99.90;;;;;;8292038;28;19917;-65
2021/09/17 10:28:27;;;;;;;;;;;22.40;99.90;;;;;;8292482;28;19906;-66
2021/09/17 10:32:35;;;;;;;;;;;23.20;99.90;;;;;;8274852;28;19909;-66
2021/09/17 10:36:43;;;;;;;;;;;23.50;99.90;;;;;;8288651;28;20285;-66
2021/09/17 10:41:02;;;;;;;;;;;23.90;99.90;;;;;;8292629;28;19906;-66
2021/09/17 10:45:06;;;;;;;;;;;24.10;99.90;;;;;;8290875;28;19967;-65
2021/09/17 10:49:06;;;;;;;;;;;22.70;99.90;;;;;;8274495;28;19948;-65
2021/09/17 10:53:07;;;;;;;;;;;22.70;99.90;;;;;;8293026;28;19909;-66
2021/09/17 10:57:08;;;;;;;;;;;22.70;99.90;;;;;;8292853;28;19905;-65
2021/09/17 11:01:11;;;;;;;;;;;22.80;99.90;;;;;;8274762;28;20353;-66
2021/09/17 11:05:16;;;;;;;;;;;23.00;99.90;;;;;;8291244;28;19921;-66
2021/09/17 11:09:36;;;;;;;;;;;23.10;99.90;;;;;;8291810;28;20313;-66
2021/09/17 11:13:37;;;;;;;;;;;23.30;99.90;;;;;;8292362;28;19909;-66
2021/09/17 11:17:39;;;;;;;;;;;23.20;99.90;;;;;;8278982;28;19906;-66
2021/09/17 11:21:43;;;;;;;;;;;23.20;99.90;;;;;;8296270;28;20356;-66
2021/09/17 11:25:45;;;;;;;;;;;23.80;99.90;;;;;;8295298;28;20393;-66
2021/09/17 11:29:47;;;;;;;;;;;25.40;99.90;;;;;;8295387;28;20003;-66
2021/09/17 11:33:54;;;;;;;;;;;27.80;98.30;;;;;;8295903;28;19924;-66
2021/09/17 11:37:56;;;;;;;;;;;29.60;86.80;;;;;;8294666;28;19921;-66
2021/09/17 11:42:02;;;;;;;;;;;29.10;82.50;;;;;;8297928;28;19906;-66
2021/09/17 11:46:02;;;;;;;;;;;29.00;83.80;;;;;;8296868;28;19913;-66
2021/09/17 11:50:05;;;;;;;;;;;33.50;73.90;;;;;;8296959;28;19909;-66
2021/09/17 11:54:06;;;;;;;;;;;33.20;62.40;;;;;;8297376;28;19913;-66
2021/09/17 11:58:06;;;;;;;;;;;30.30;64.50;;;;;;8296081;28;20373;-66
2021/09/17 12:02:10;;;;;;;;;;;28.20;69.30;;;;;;8297152;28;19909;-66
2021/09/17 12:06:11;;;;;;;;;;;27.10;73.90;;;;;;8293457;28;19913;-66
2021/09/17 12:10:13;;;;;;;;;;;25.80;77.50;;;;;;8297068;28;19906;-66
2021/09/17 12:14:21;;;;;;;;;;;24.70;79.80;;;;;;8295782;28;19996;-65
2021/09/17 12:18:22;;;;;;;;;;;23.90;84.20;;;;;;8296131;28;20432;-66
2021/09/17 12:22:34;;;;;;;;;;;25.90;80.50;;;;;;8276659;28;19909;-66
2021/09/17 12:26:34;;;;;;;;;;;26.40;77.00;;;;;;8294538;28;20285;-66
2021/09/17 12:30:35;;;;;;;;;;;27.40;75.70;;;;;;8294428;28;19905;-66
2021/09/17 12:34:36;;;;;;;;;;;25.60;73.50;;;;;;8294221;28;19920;-65
2021/09/17 12:38:37;;;;;;;;;;;24.70;77.30;;;;;;8292670;28;19913;-65
2021/09/17 12:42:38;;;;;;;;;;;24.10;81.60;;;;;;8275657;28;19914;-66
2021/09/17 12:46:42;;;;;;;;;;;24.10;89.50;;;;;;8290873;28;19988;-66
2021/09/17 12:50:44;;;;;;;;;;;30.70;74.80;;;;;;8277338;28;20336;-67
2021/09/17 12:54:45;;;;;;;;;;;36.70;55.00;;;;;;8293874;28;20404;-67
2021/09/17 12:59:04;;;;;;;;;;;37.20;48.50;;;;;;8295030;28;19909;-66
2021/09/17 13:03:05;;;;;;;;;;;35.80;51.30;;;;;;8295362;28;19906;-67
2021/09/17 13:07:05;;;;;;;;;;;34.20;49.10;;;;;;8294546;28;20297;-66
2021/09/17 13:11:07;;;;;;;;;;;31.10;54.60;;;;;;8294413;28;19992;-66
2021/09/17 13:15:08;;;;;;;;;;;29.50;58.90;;;;;;8293884;28;19975;-66
2021/09/17 13:19:09;;;;;;;;;;;30.60;59.50;;;;;;8292478;28;19916;-66
2021/09/17 13:23:10;;;;;;;;;;;31.30;54.00;;;;;;8275804;28;19912;-66
2021/09/17 13:27:10;;;;;;;;;;;29.80;58.00;;;;;;8292888;28;19913;-66
2021/09/17 13:31:11;;;;;;;;;;;28.30;59.70;;;;;;8292220;28;19914;-66
2021/09/17 13:35:12;;;;;;;;;;;27.60;61.00;;;;;;8292232;28;19948;-67
2021/09/17 13:39:12;;;;;;;;;;;31.10;57.90;;;;;;8293366;28;20020;-67
2021/09/17 13:43:13;;;;;;;;;;;36.10;48.50;;;;;;8293156;28;20381;-68
2021/09/17 13:47:13;;;;;;;;;;;39.40;41.70;;;;;;8291545;28;19959;-68
2021/09/17 13:51:14;;;;;;;;;;;38.20;41.10;;;;;;8293152;28;19916;-68
2021/09/17 13:55:15;;;;;;;;;;;33.50;46.70;;;;;;8290001;28;20492;-66
2021/09/17 13:59:16;;;;;;;;;;;30.30;53.00;;;;;;8291993;28;19978;-66
2021/09/17 14:03:17;;;;;;;;;;;29.30;54.90;;;;;;8293028;28;19913;-66
2021/09/17 14:07:18;;;;;;;;;;;29.20;55.00;;;;;;8274053;28;19955;-66
2021/09/17 14:11:18;;;;;;;;;;;28.70;53.40;;;;;;8292855;28;19906;-66
2021/09/17 14:15:19;;;;;;;;;;;27.50;56.70;;;;;;8274720;28;19963;-66
2021/09/17 14:19:19;;;;;;;;;;;30.80;52.90;;;;;;8292908;28;19905;-66
2021/09/17 14:23:20;;;;;;;;;;;33.30;49.50;;;;;;8292403;28;19963;-66
2021/09/17 14:27:20;;;;;;;;;;;34.60;47.30;;;;;;8272691;28;19916;-67
2021/09/17 14:31:21;;;;;;;;;;;35.80;44.20;;;;;;8292641;28;20369;-67
2021/09/17 14:35:21;;;;;;;;;;;37.90;42.20;;;;;;8273903;28;20373;-67
2021/09/17 14:39:21;;;;;;;;;;;40.20;37.70;;;;;;8292802;28;19909;-67
2021/09/17 14:43:23;;;;;;;;;;;38.60;37.30;;;;;;8273926;28;19913;-67
2021/09/17 14:47:24;;;;;;;;;;;38.40;37.80;;;;;;8294373;28;20381;-67
2021/09/17 14:51:25;;;;;;;;;;;39.80;38.80;;;;;;8299107;28;19916;-67
2021/09/17 14:55:25;;;;;;;;;;;39.20;38.10;;;;;;8297521;28;20020;-67
2021/09/17 14:59:25;;;;;;;;;;;39.60;37.50;;;;;;8298135;28;19913;-67
2021/09/17 15:03:26;;;;;;;;;;;40.40;36.30;;;;;;8298235;28;19913;-67
2021/09/17 15:07:27;;;;;;;;;;;37.80;37.70;;;;;;8297268;28;19911;-67
2021/09/17 15:11:28;;;;;;;;;;;32.90;44.80;;;;;;8298469;28;19905;-67
2021/09/17 15:15:28;;;;;;;;;;;30.10;49.60;;;;;;8297258;28;19910;-66
2021/09/17 15:19:29;;;;;;;;;;;28.40;53.10;;;;;;8297260;28;19912;-66
2021/09/17 15:23:29;;;;;;;;;;;27.20;55.60;;;;;;8279482;28;19909;-66
2021/09/17 15:27:30;;;;;;;;;;;26.30;59.10;;;;;;8296417;28;19909;-67
2021/09/17 15:31:33;;;;;;;;;;;28.70;56.50;;;;;;8279464;28;20428;-67
2021/09/17 15:35:34;;;;;;;;;;;30.20;52.50;;;;;;8278152;28;19913;-67
2021/09/17 15:39:34;;;;;;;;;;;29.40;53.80;;;;;;8296568;28;19937;-66
2021/09/17 15:43:35;;;;;;;;;;;28.30;55.40;;;;;;8278633;28;20278;-67
2021/09/17 15:47:36;;;;;;;;;;;27.30;59.40;;;;;;8278581;28;19913;-66
2021/09/17 15:51:37;;;;;;;;;;;27.40;57.90;;;;;;8296346;28;19992;-67
2021/09/17 15:55:38;;;;;;;;;;;26.70;60.00;;;;;;8277102;28;19913;-66
2021/09/17 15:59:38;;;;;;;;;;;26.20;62.30;;;;;;8296099;28;19992;-66
2021/09/17 16:03:39;;;;;;;;;;;26.70;59.70;;;;;;8295438;28;19916;-67
2021/09/17 16:07:43;;;;;;;;;;;27.50;58.80;;;;;;8295053;28;20036;-66
2021/09/17 16:11:44;;;;;;;;;;;27.80;57.20;;;;;;8295894;28;21308;-66
2021/09/17 16:15:44;;;;;;;;;;;27.50;58.10;;;;;;8293683;28;19910;-66
2021/09/17 16:19:45;;;;;;;;;;;29.10;55.80;;;;;;8276941;28;19909;-67
2021/09/17 16:23:45;;;;;;;;;;;30.60;54.20;;;;;;8296422;28;19906;-66
2021/09/17 16:27:46;;;;;;;;;;;30.90;52.00;;;;;;8295844;28;20354;-67
2021/09/17 16:31:46;;;;;;;;;;;29.10;54.30;;;;;;8295309;28;20296;-67
2021/09/17 16:35:47;;;;;;;;;;;28.40;56.00;;;;;;8294378;28;19913;-66
2021/09/17 16:39:48;;;;;;;;;;;27.00;59.20;;;;;;8295969;28;19906;-66
2021/09/17 16:43:48;;;;;;;;;;;25.80;63.10;;;;;;8277270;28;19916;-67
2021/09/17 16:47:48;;;;;;;;;;;24.10;69.50;;;;;;8294859;28;19992;-67
2021/09/17 16:51:49;;;;;;;;;;;22.60;73.60;;;;;;8295483;28;19956;-66
2021/09/17 16:55:49;;;;;;;;;;;20.90;79.20;;;;;;8294187;28;19909;-65
2021/09/17 16:59:50;;;;;;;;;;;20.10;84.70;;;;;;8277339;28;19936;-65
2021/09/17 17:03:50;;;;;;;;;;;19.30;90.00;;;;;;8295565;28;19905;-65
2021/09/17 17:07:51;;;;;;;;;;;18.80;92.20;;;;;;8277276;28;19920;-66
2021/09/17 17:11:51;;;;;;;;;;;18.40;95.60;;;;;;8275535;28;19932;-66
2021/09/17 17:15:52;;;;;;;;;;;17.80;99.90;;;;;;8276239;28;19918;-66
2021/09/17 17:19:52;;;;;;;;;;;17.50;99.90;;;;;;8276756;28;20517;-65
2021/09/17 17:23:53;;;;;;;;;;;17.40;99.90;;;;;;8294871;28;19912;-65
2021/09/17 17:27:53;;;;;;;;;;;17.30;99.90;;;;;;8276843;28;19933;-65
2021/09/17 17:31:54;;;;;;;;;;;16.90;99.90;;;;;;8294022;28;19910;-66
2021/09/17 17:35:54;;;;;;;;;;;16.60;99.90;;;;;;8291868;28;19913;-65
2021/09/17 17:39:55;;;;;;;;;;;16.20;99.90;;;;;;8293011;28;19999;-65
2021/09/17 17:43:59;;;;;;;;;;;16.30;99.90;;;;;;8292615;28;19992;-65
2021/09/17 17:48:01;;;;;;;;;;;16.10;99.90;;;;;;8276339;28;19921;-66
2021/09/17 17:52:03;;;;;;;;;;;15.80;99.90;;;;;;8293904;28;20451;-65
2021/09/17 17:56:06;;;;;;;;;;;15.50;99.90;;;;;;8291468;28;19909;-65
2021/09/17 18:00:08;;;;;;;;;;;15.30;99.90;;;;;;8274383;28;19932;-62
2021/09/17 18:04:09;;;;;;;;;;;15.40;99.90;;;;;;8291375;28;19909;-63
2021/09/17 18:08:09;;;;;;;;;;;15.30;99.90;;;;;;8292455;28;19913;-63
2021/09/17 18:12:12;;;;;;;;;;;15.10;99.90;;;;;;8291906;28;19939;-62
2021/09/17 18:16:12;;;;;;;;;;;15.00;99.90;;;;;;8288328;28;20355;-63
2021/09/17 18:20:13;;;;;;;;;;;14.90;99.90;;;;;;8291080;28;19917;-63
2021/09/17 18:24:13;;;;;;;;;;;15.00;99.90;;;;;;8273400;28;20330;-63
2021/09/17 18:28:14;;;;;;;;;;;14.90;99.90;;;;;;8294233;28;19928;-63
2021/09/17 18:32:16;;;;;;;;;;;14.80;99.90;;;;;;8298637;28;20004;-63
2021/09/17 18:36:16;;;;;;;;;;;14.80;99.90;;;;;;8299439;28;20293;-62
2021/09/17 18:40:18;;;;;;;;;;;14.60;99.90;;;;;;8299768;28;19915;-62
2021/09/17 18:44:18;;;;;;;;;;;14.30;99.90;;;;;;8281961;28;20445;-62
2021/09/17 18:48:19;;;;;;;;;;;14.30;99.90;;;;;;8299217;28;19916;-62
2021/09/17 18:52:20;;;;;;;;;;;14.30;99.90;;;;;;8282050;28;19935;-63
2021/09/17 18:56:21;;;;;;;;;;;13.90;99.90;;;;;;8280685;28;19909;-62
2021/09/17 19:00:21;;;;;;;;;;;13.70;99.90;;;;;;8298541;28;19945;-62
2021/09/17 19:04:22;;;;;;;;;;;13.40;99.90;;;;;;8297606;28;19913;-62
2021/09/17 19:08:22;;;;;;;;;;;13.40;99.90;;;;;;8297742;28;19917;-62
2021/09/17 19:12:23;;;;;;;;;;;13.60;99.90;;;;;;8297406;28;20371;-63
2021/09/17 19:16:23;;;;;;;;;;;13.30;99.90;;;;;;8297791;28;20000;-63
2021/09/17 19:20:23;;;;;;;;;;;13.00;99.90;;;;;;8297073;28;19910;-62
2021/09/17 19:24:24;;;;;;;;;;;12.90;99.90;;;;;;8297337;28;19906;-63
2021/09/17 19:28:24;;;;;;;;;;;12.90;99.90;;;;;;8297669;28;19980;-62
2021/09/17 19:32:25;;;;;;;;;;;13.00;99.90;;;;;;8297050;28;19905;-62
2021/09/17 19:36:26;;;;;;;;;;;13.00;99.90;;;;;;8296847;28;19913;-62
2021/09/17 19:40:27;;;;;;;;;;;12.70;99.90;;;;;;8297512;28;19906;-62
2021/09/17 19:44:27;;;;;;;;;;;12.50;99.90;;;;;;8297095;28;20397;-62
2021/09/17 19:48:29;;;;;;;;;;;12.30;99.90;;;;;;8279485;28;19905;-62
2021/09/17 19:52:30;;;;;;;;;;;12.50;99.90;;;;;;8297294;28;19913;-62
2021/09/17 19:56:30;;;;;;;;;;;12.50;99.90;;;;;;8294814;28;19913;-62
2021/09/17 20:00:31;;;;;;;;;;;12.30;99.90;;;;;;8297157;28;19936;-62
2021/09/17 20:04:31;;;;;;;;;;;12.00;99.90;;;;;;8297095;28;19909;-62
2021/09/17 20:08:32;;;;;;;;;;;11.80;99.90;;;;;;8297157;28;19916;-62
2021/09/17 20:12:32;;;;;;;;;;;11.70;99.90;;;;;;8279507;28;20288;-63
2021/09/17 20:16:33;;;;;;;;;;;11.70;99.90;;;;;;8296724;28;19911;-63
2021/09/17 20:20:33;;;;;;;;;;;11.60;99.90;;;;;;8296890;28;20329;-62
2021/09/17 20:24:34;;;;;;;;;;;11.50;99.90;;;;;;8279021;28;20008;-62
2021/09/17 20:28:34;;;;;;;;;;;11.50;99.90;;;;;;8296879;28;19905;-62
2021/09/17 20:32:34;;;;;;;;;;;11.50;99.90;;;;;;8297280;28;19913;-62
2021/09/17 20:36:35;;;;;;;;;;;11.60;99.90;;;;;;8296479;28;20358;-62
2021/09/17 20:40:35;;;;;;;;;;;11.70;99.90;;;;;;8279187;28;20350;-62
2021/09/17 20:44:41;;;;;;;;;;;11.50;99.90;;;;;;8285122;28;19937;-62
2021/09/17 20:48:41;;;;;;;;;;;11.20;99.90;;;;;;8277245;28;20417;-62
2021/09/17 20:52:42;;;;;;;;;;;10.90;99.90;;;;;;8295547;28;19909;-62
2021/09/17 20:56:43;;;;;;;;;;;11.10;99.90;;;;;;8295705;28;20385;-62
2021/09/17 21:00:44;;;;;;;;;;;11.10;99.90;;;;;;8295459;28;19906;-62
2021/09/17 21:04:44;;;;;;;;;;;11.00;99.90;;;;;;8295223;28;20006;-62
2021/09/17 21:08:45;;;;;;;;;;;11.20;99.90;;;;;;8295259;28;20378;-62
2021/09/17 21:12:45;;;;;;;;;;;11.20;99.90;;;;;;8295296;28;19905;-63
2021/09/17 21:16:46;;;;;;;;;;;10.90;99.90;;;;;;8277449;28;19905;-62
2021/09/17 21:20:46;;;;;;;;;;;10.50;99.90;;;;;;8294964;28;19992;-62
2021/09/17 21:24:47;;;;;;;;;;;10.60;99.90;;;;;;8277209;28;19905;-62
2021/09/17 21:28:47;;;;;;;;;;;10.60;99.90;;;;;;8294646;28;19913;-62
2021/09/17 21:32:48;;;;;;;;;;;10.60;99.90;;;;;;8294942;28;19906;-62
2021/09/17 21:36:48;;;;;;;;;;;10.40;99.90;;;;;;8276606;28;20291;-62
2021/09/17 21:40:49;;;;;;;;;;;10.40;99.90;;;;;;8294807;28;20366;-62
2021/09/17 21:44:49;;;;;;;;;;;10.30;99.90;;;;;;8321745;23;19933;-60
2021/09/17 21:48:50;;;;;;;;;;;10.30;99.90;;;;;;8276191;28;19909;-61
2021/09/17 21:52:50;;;;;;;;;;;10.30;99.90;;;;;;8294223;28;19949;-61
2021/09/17 21:56:50;;;;;;;;;;;10.00;99.90;;;;;;8293864;28;20581;-62
2021/09/17 22:00:51;;;;;;;;;;;9.90;99.90;;;;;;8294088;28;20313;-61
2021/09/17 22:04:52;;;;;;;;;;;9.90;99.90;;;;;;8293946;28;19957;-60
2021/09/17 22:08:52;;;;;;;;;;;10.40;99.90;;;;;;8277493;28;19921;-61
2021/09/17 22:12:52;;;;;;;;;;;10.10;99.90;;;;;;8243624;28;19909;-61
2021/09/17 22:16:53;;;;;;;;;;;10.00;99.90;;;;;;8243630;28;19905;-61
2021/09/17 22:20:54;;;;;;;;;;;10.00;99.90;;;;;;8292334;28;19905;-61
2021/09/17 22:24:54;;;;;;;;;;;10.20;99.90;;;;;;8293356;28;19909;-62
2021/09/17 22:28:55;;;;;;;;;;;10.00;99.90;;;;;;8293522;28;19999;-60
2021/09/17 22:32:55;;;;;;;;;;;9.70;99.90;;;;;;8293500;28;19913;-60
2021/09/17 22:36:56;;;;;;;;;;;9.70;99.90;;;;;;8293252;28;19905;-61
2021/09/17 22:40:56;;;;;;;;;;;9.60;99.90;;;;;;8293363;28;19960;-61
2021/09/17 22:44:57;;;;;;;;;;;9.80;99.90;;;;;;8292745;28;20408;-61
2021/09/17 22:48:57;;;;;;;;;;;9.60;99.90;;;;;;8275505;28;19909;-62
2021/09/17 22:52:58;;;;;;;;;;;9.60;99.90;;;;;;8293416;28;20372;-61
2021/09/17 22:56:58;;;;;;;;;;;9.60;99.90;;;;;;8293078;28;19909;-61
2021/09/17 23:00:59;;;;;;;;;;;9.50;99.90;;;;;;8292903;28;20004;-61
2021/09/17 23:04:59;;;;;;;;;;;9.30;99.90;;;;;;8292737;28;20433;-61
2021/09/17 23:09:00;;;;;;;;;;;9.10;99.90;;;;;;8296981;28;19905;-60
2021/09/17 23:13:00;;;;;;;;;;;9.20;99.90;;;;;;8299227;28;19905;-61
2021/09/17 23:17:00;;;;;;;;;;;9.20;99.90;;;;;;8298863;28;19905;-61
2021/09/17 23:21:01;;;;;;;;;;;9.10;99.90;;;;;;8298850;28;20514;-61
2021/09/17 23:25:02;;;;;;;;;;;9.20;99.90;;;;;;8298756;28;20297;-61